Time;durP1;ratioP1;P1;durP2;ratioP2;P2;SDS_P1;SDS_P2;PMS_P1;PMS_P2;Temp;Humidity;BMP_temperature;BMP_pressure;BME280_temperature;BME280_humidity;BME280_pressure;Samples;Min_cycle;Max_cycle;Signal;HPM_P1;HPM_P2
2021/03/15 00:01:00;;;;;;;29.73;22.58;;;;;;;8.75;81.45;99478.94;5031813;28;20083;-70
2021/03/15 00:03:26;;;;;;;30.38;23.45;;;;;;;8.79;81.26;99488.47;5032036;28;20120;-70
2021/03/15 00:05:51;;;;;;;28.52;23.13;;;;;;;8.96;81.04;99483.81;5031601;28;20108;-70
2021/03/15 00:08:18;;;;;;;29.05;23.30;;;;;;;8.78;80.69;99454.97;5033891;28;20032;-70
2021/03/15 00:10:44;;;;;;;31.63;22.38;;;;;;;8.95;80.77;99482.06;5035453;28;20036;-72
2021/03/15 00:13:10;;;;;;;28.27;22.13;;;;;;;9.04;80.16;99478.84;5033280;28;20030;-67
2021/03/15 00:15:36;;;;;;;29.67;22.48;;;;;;;9.06;79.04;99482.34;5032688;28;20025;-68
2021/03/15 00:18:02;;;;;;;28.88;22.13;;;;;;;9.00;79.00;99471.88;5032200;28;20046;-69
2021/03/15 00:20:28;;;;;;;114.25;54.33;;;;;;;9.10;78.32;99478.13;5047835;28;20565;-69
2021/03/15 00:22:54;;;;;;;54.63;32.95;;;;;;;9.10;78.45;99475.56;5031427;28;20056;-73
2021/03/15 00:25:21;;;;;;;34.17;25.33;;;;;;;9.07;79.32;99463.47;5008298;28;20481;-70
2021/03/15 00:27:46;;;;;;;28.13;21.45;;;;;;;9.14;80.02;99465.38;5013542;28;20095;-73
2021/03/15 00:30:14;;;;;;;24.88;20.15;;;;;;;9.09;80.13;99456.69;5020492;28;20041;-71
2021/03/15 00:32:41;;;;;;;26.65;21.10;;;;;;;9.10;80.38;99463.56;5015413;28;20536;-71
2021/03/15 00:35:09;;;;;;;27.88;21.15;;;;;;;8.96;79.68;99450.34;5009361;28;20037;-70
2021/03/15 00:37:35;;;;;;;26.15;19.83;;;;;;;8.83;79.99;99423.38;5013712;28;20521;-69
2021/03/15 00:40:01;;;;;;;24.17;19.90;;;;;;;9.00;80.02;99456.44;5010477;28;20049;-70
2021/03/15 00:42:26;;;;;;;27.58;20.10;;;;;;;8.96;80.09;99454.59;5022422;28;20477;-70
2021/03/15 00:44:52;;;;;;;27.13;21.05;;;;;;;8.93;80.02;99455.38;5026387;28;20053;-70
2021/03/15 00:47:17;;;;;;;26.63;20.90;;;;;;;8.90;80.41;99445.88;5024760;28;20036;-69
2021/03/15 00:49:43;;;;;;;28.33;22.77;;;;;;;8.86;80.90;99448.31;5005439;28;21968;-72
2021/03/15 00:52:08;;;;;;;25.52;21.13;;;;;;;8.82;80.40;99460.25;5028450;28;20052;-72
2021/03/15 00:54:34;;;;;;;25.58;21.17;;;;;;;8.81;79.87;99452.47;5011594;28;20025;-66
2021/03/15 00:56:59;;;;;;;28.45;22.65;;;;;;;8.78;80.62;99455.84;5043299;28;20048;-67
2021/03/15 00:59:25;;;;;;;27.83;21.13;;;;;;;8.61;81.06;99451.91;5049722;28;20064;-70
2021/03/15 01:01:50;;;;;;;25.77;21.52;;;;;;;8.22;82.26;99418.25;5050347;28;20025;-71
2021/03/15 01:04:16;;;;;;;26.73;21.10;;;;;;;8.31;82.83;99438.22;5050267;28;20036;-70
2021/03/15 01:06:42;;;;;;;24.08;20.70;;;;;;;8.19;84.25;99448.97;5050480;28;20125;-68
2021/03/15 01:09:09;;;;;;;26.00;20.90;;;;;;;7.87;85.47;99407.75;5050501;28;20029;-70
2021/03/15 01:11:34;;;;;;;30.15;20.85;;;;;;;8.15;85.21;99438.56;5046492;28;20124;-70
2021/03/15 01:14:00;;;;;;;25.25;20.25;;;;;;;8.31;85.20;99439.88;5039986;28;20115;-70
2021/03/15 01:16:25;;;;;;;26.65;20.88;;;;;;;8.33;84.61;99425.38;5048872;28;20025;-72
2021/03/15 01:18:51;;;;;;;27.27;20.95;;;;;;;8.50;84.62;99444.78;5049539;28;20025;-69
2021/03/15 01:21:17;;;;;;;25.73;20.83;;;;;;;8.57;84.18;99435.53;5050081;28;20025;-69
2021/03/15 01:23:42;;;;;;;29.10;20.92;;;;;;;8.64;83.26;99441.72;5049487;28;20025;-71
2021/03/15 01:26:08;;;;;;;70.90;64.03;;;;;;;8.68;81.68;99428.13;5049807;28;20480;-70
2021/03/15 01:28:33;;;;;;;40.75;35.80;;;;;;;8.71;79.76;99423.94;5049214;28;20055;-70
2021/03/15 01:31:00;;;;;;;30.38;23.85;;;;;;;8.80;79.78;99432.72;5049718;28;20029;-70
2021/03/15 01:33:25;;;;;;;28.17;23.30;;;;;;;8.76;79.70;99420.59;5050145;28;20028;-70
2021/03/15 01:35:51;;;;;;;28.42;22.40;;;;;;;8.79;79.46;99421.56;5049309;28;20104;-72
2021/03/15 01:38:17;;;;;;;25.52;20.38;;;;;;;8.75;79.31;99422.31;5051166;28;20100;-71
2021/03/15 01:40:42;;;;;;;28.20;21.58;;;;;;;8.63;82.02;99422.84;5053598;28;20480;-67
2021/03/15 01:43:09;;;;;;;26.23;21.88;;;;;;;8.61;82.30;99408.19;5053217;28;20028;-69
2021/03/15 01:45:35;;;;;;;104.63;45.03;;;;;;;8.63;80.35;99401.38;5052487;28;20093;-69
2021/03/15 01:48:02;;;;;;;46.17;26.42;;;;;;;8.66;77.85;99404.94;5053543;28;20429;-69
2021/03/15 01:50:28;;;;;;;34.13;20.77;;;;;;;8.56;78.55;99388.34;5053757;28;20104;-69
2021/03/15 01:52:55;;;;;;;27.30;19.83;;;;;;;8.62;79.48;99397.94;5052244;28;20147;-70
2021/03/15 01:55:22;;;;;;;24.25;20.02;;;;;;;8.57;79.66;99387.53;5053284;28;20036;-69
2021/03/15 01:57:49;;;;;;;25.73;19.60;;;;;;;8.48;78.01;99386.41;5053378;28;20041;-66
2021/03/15 02:00:17;;;;;;;61.78;31.23;;;;;;;8.51;78.01;99395.06;5053414;28;20033;-71
2021/03/15 02:02:56;;;;;;;117.43;53.08;;;;;;;8.51;77.59;99384.78;5053613;28;20461;-67
2021/03/15 02:05:22;;;;;;;54.83;28.48;;;;;;;8.37;76.28;99388.63;5053469;28;20100;-67
2021/03/15 02:07:47;;;;;;;372.75;134.50;;;;;;;8.04;77.74;99374.00;5051176;28;20021;-69
2021/03/15 02:10:13;;;;;;;39.40;25.75;;;;;;;8.15;78.11;99380.31;5052489;28;20416;-66
2021/03/15 02:13:09;;;;;;;30.50;22.63;;;;;;;8.10;78.22;99377.59;5053151;28;20020;-70
2021/03/15 02:16:23;;;;;;;41.58;30.45;;;;;;;8.14;78.34;99375.09;5050140;28;20025;-66
2021/03/15 02:19:09;;;;;;;45.08;31.40;;;;;;;8.07;78.57;99363.78;5029671;28;20029;-69
2021/03/15 02:22:07;;;;;;;48.53;36.72;;;;;;;8.11;77.81;99373.31;5027998;28;20029;-69
2021/03/15 02:24:43;;;;;;;47.25;35.90;;;;;;;8.05;77.01;99373.13;5025294;28;20591;-69
2021/03/15 02:27:29;;;;;;;45.38;32.65;;;;;;;7.58;78.84;99379.47;5014159;28;20460;-69
2021/03/15 02:30:13;;;;;;;39.33;28.38;;;;;;;7.38;79.23;99334.31;5030667;28;20041;-67
2021/03/15 02:33:36;;;;;;;40.67;28.30;;;;;;;7.54;78.57;99362.22;4988382;28;20030;-65
2021/03/15 02:36:04;;;;;;;50.70;32.08;;;;;;;7.39;78.12;99364.28;4986942;28;20110;-69
2021/03/15 02:38:34;;;;;;;53.85;32.03;;;;;;;7.28;77.94;99380.22;4989360;28;20525;-66
2021/03/15 02:41:02;;;;;;;85.82;39.80;;;;;;;7.07;78.56;99376.97;4985886;28;20072;-68
2021/03/15 02:43:53;;;;;;;65.38;33.72;;;;;;;6.87;78.57;99374.59;4989595;28;20113;-70
2021/03/15 02:46:21;;;;;;;63.60;32.35;;;;;;;6.78;79.17;99385.41;4989845;28;20036;-66
2021/03/15 02:48:50;;;;;;;84.43;37.15;;;;;;;6.72;79.58;99377.50;4990296;28;20113;-68
2021/03/15 02:51:18;;;;;;;60.38;29.85;;;;;;;6.66;79.65;99384.97;4983085;28;20045;-68
2021/03/15 02:53:45;;;;;;;44.40;28.80;;;;;;;6.57;79.83;99371.84;4988602;28;20565;-69
2021/03/15 02:56:22;;;;;;;51.22;28.08;;;;;;;6.34;80.54;99342.81;5023441;28;20497;-65
2021/03/15 02:58:50;;;;;;;83.43;39.08;;;;;;;6.34;81.12;99379.56;5030010;28;20046;-63
2021/03/15 03:01:18;;;;;;;60.95;36.03;;;;;;;6.20;81.96;99356.00;5030189;28;20118;-68
2021/03/15 03:03:45;;;;;;;121.50;54.67;;;;;;;6.45;81.57;99368.00;5011793;28;20121;-65
2021/03/15 03:06:11;;;;;;;64.63;43.60;;;;;;;6.54;81.36;99371.72;5029987;28;20029;-69
2021/03/15 03:08:38;;;;;;;46.08;31.27;;;;;;;6.66;81.00;99379.00;5029686;28;20075;-69
2021/03/15 03:11:04;;;;;;;45.42;27.90;;;;;;;6.49;80.61;99351.03;5047065;28;20116;-68
2021/03/15 03:13:32;;;;;;;46.85;27.92;;;;;;;6.62;80.72;99363.47;5052196;28;20477;-71
2021/03/15 03:15:58;;;;;;;41.33;26.73;;;;;;;6.55;80.46;99351.25;5049906;28;20032;-69
2021/03/15 03:18:24;;;;;;;35.58;24.58;;;;;;;6.49;79.59;99335.66;5051649;28;20017;-68
2021/03/15 03:20:54;;;;;;;36.22;23.70;;;;;;;6.58;79.40;99341.13;5051273;28;20033;-65
2021/03/15 03:23:21;;;;;;;37.63;24.35;;;;;;;6.56;79.13;99349.59;5051940;28;20115;-69
2021/03/15 03:25:48;;;;;;;74.40;50.65;;;;;;;6.50;79.17;99352.78;5052077;28;20112;-68
2021/03/15 03:28:15;;;;;;;47.60;30.40;;;;;;;6.56;79.06;99347.03;5051835;28;20116;-71
2021/03/15 03:30:42;;;;;;;42.28;32.20;;;;;;;6.40;79.41;99358.44;5051865;28;20095;-67
2021/03/15 03:33:09;;;;;;;43.60;27.73;;;;;;;6.29;80.13;99335.84;5051723;28;20030;-68
2021/03/15 03:35:36;;;;;;;45.45;33.83;;;;;;;6.31;80.66;99334.19;5051196;28;20029;-69
2021/03/15 03:38:02;;;;;;;40.95;27.33;;;;;;;6.12;81.04;99312.16;5049659;28;20408;-66
2021/03/15 03:40:28;;;;;;;40.80;28.83;;;;;;;6.07;82.34;99317.94;5051612;28;20055;-68
2021/03/15 03:42:54;;;;;;;35.92;26.10;;;;;;;6.35;82.80;99334.31;5051745;28;20032;-69
2021/03/15 03:45:20;;;;;;;45.80;29.98;;;;;;;6.41;82.01;99317.44;5051514;28;20029;-66
2021/03/15 03:47:46;;;;;;;112.53;50.58;;;;;;;6.48;82.33;99316.00;5051176;28;20102;-71
2021/03/15 03:50:14;;;;;;;38.92;27.60;;;;;;;6.66;84.21;99331.13;5050716;28;20067;-71
2021/03/15 03:52:48;;;;;;;57.47;30.73;;;;;;;6.69;85.68;99310.72;5051519;28;20114;-68
2021/03/15 03:55:16;;;;;;;57.10;32.08;;;;;;;6.75;83.27;99312.59;5050536;28;20031;-68
2021/03/15 03:57:44;;;;;;;38.50;27.38;;;;;;;6.49;81.60;99302.31;5051248;28;20045;-71
2021/03/15 04:00:12;;;;;;;38.95;25.63;;;;;;;6.39;81.11;99302.84;5050519;28;20035;-69
2021/03/15 04:02:47;;;;;;;43.88;26.42;;;;;;;6.27;80.99;99318.69;5047443;28;20029;-72
2021/03/15 04:05:20;;;;;;;38.15;27.77;;;;;;;6.04;81.32;99322.97;5007390;28;20046;-70
2021/03/15 04:07:50;;;;;;;36.20;25.63;;;;;;;5.97;80.60;99311.59;4961447;28;20418;-69
2021/03/15 04:10:16;;;;;;;39.45;27.90;;;;;;;5.95;81.07;99314.06;5007005;28;20053;-70
2021/03/15 04:12:50;;;;;;;46.35;28.73;;;;;;;5.92;81.38;99307.97;4992588;28;20048;-74
2021/03/15 04:15:17;;;;;;;50.17;27.65;;;;;;;5.70;81.26;99278.16;5008601;28;20037;-73
2021/03/15 04:17:45;;;;;;;48.28;29.77;;;;;;;5.83;81.48;99295.69;5009039;28;20040;-70
2021/03/15 04:20:20;;;;;;;54.25;31.80;;;;;;;5.90;82.28;99302.78;5008660;28;20037;-69
2021/03/15 04:22:51;;;;;;;46.47;31.52;;;;;;;5.91;83.12;99309.66;5007607;28;20049;-70
2021/03/15 04:25:19;;;;;;;49.60;31.27;;;;;;;5.92;83.59;99290.03;4993925;28;20191;-71
2021/03/15 04:27:50;;;;;;;71.60;38.75;;;;;;;6.02;83.66;99297.28;4990342;28;20460;-71
2021/03/15 04:30:17;;;;;;;58.67;32.13;;;;;;;5.99;84.14;99276.66;5008445;28;20128;-69
2021/03/15 04:32:44;;;;;;;52.00;31.35;;;;;;;5.98;83.67;99275.81;5008572;28;20033;-72
2021/03/15 04:35:10;;;;;;;45.53;30.65;;;;;;;6.15;83.89;99298.59;5011334;28;20125;-70
2021/03/15 04:37:37;;;;;;;78.00;40.22;;;;;;;6.12;84.34;99289.09;5047226;28;20409;-68
2021/03/15 04:40:04;;;;;;;48.90;30.92;;;;;;;6.31;84.32;99305.13;5039449;28;20040;-71
2021/03/15 04:42:30;;;;;;;35.28;24.33;;;;;;;6.45;84.14;99303.91;5046397;28;20086;-68
2021/03/15 04:44:56;;;;;;;51.60;31.52;;;;;;;6.44;83.84;99296.19;5050471;28;20029;-69
2021/03/15 04:47:22;;;;;;;60.15;32.90;;;;;;;6.06;83.77;99253.03;5049231;28;20037;-68
2021/03/15 04:49:48;;;;;;;57.15;32.35;;;;;;;5.93;84.68;99253.34;5051518;28;20111;-74
2021/03/15 04:52:15;;;;;;;54.10;31.00;;;;;;;6.15;83.47;99296.03;5045578;28;20064;-71
2021/03/15 04:54:43;;;;;;;37.97;25.67;;;;;;;6.03;83.67;99291.34;5043486;28;20041;-68
2021/03/15 04:57:13;;;;;;;30.88;23.40;;;;;;;6.04;83.96;99295.63;5038678;28;20045;-68
2021/03/15 04:59:39;;;;;;;;;;;;;;;5.99;84.02;99287.81;5042832;28;20083;-68
2021/03/15 05:02:06;;;;;;;34.67;27.05;;;;;;;5.78;84.29;99287.88;5046896;28;20559;-71
2021/03/15 05:04:32;;;;;;;44.00;30.65;;;;;;;5.75;84.83;99282.59;5051430;28;20128;-71
2021/03/15 05:06:58;;;;;;;35.25;25.48;;;;;;;5.79;85.30;99266.53;5045122;28;20096;-68
2021/03/15 05:09:26;;;;;;;32.13;23.13;;;;;;;5.66;85.50;99233.63;5049346;28;20401;-70
2021/03/15 05:11:52;;;;;;;33.08;24.15;;;;;;;5.97;85.42;99271.47;5051033;28;20465;-69
2021/03/15 05:14:18;;;;;;;47.33;33.47;;;;;;;6.01;85.58;99271.59;5051161;28;20021;-69
2021/03/15 05:16:44;;;;;;;41.72;30.10;;;;;;;5.99;85.29;99271.53;5050823;28;20017;-69
2021/03/15 05:19:11;;;;;;;35.10;25.75;;;;;;;5.97;85.64;99281.72;5050494;28;20028;-73
2021/03/15 05:21:58;;;;;;;30.00;22.27;;;;;;;5.94;85.83;99281.63;5050582;28;20074;-70
2021/03/15 05:24:25;;;;;;;32.38;24.10;;;;;;;5.83;86.69;99272.63;5009455;28;20026;-68
2021/03/15 05:26:51;;;;;;;38.97;23.83;;;;;;;5.85;87.10;99277.84;5028720;28;20041;-68
2021/03/15 05:29:17;;;;;;;47.03;31.65;;;;;;;5.80;87.01;99275.09;5020585;28;20034;-69
2021/03/15 05:31:47;;;;;;;67.15;48.10;;;;;;;5.87;87.13;99271.97;5027110;28;20476;-66
2021/03/15 05:34:14;;;;;;;105.82;77.45;;;;;;;5.70;86.42;99242.31;5027933;28;20041;-66
2021/03/15 05:36:42;;;;;;;74.97;59.38;;;;;;;5.83;86.86;99270.09;5028308;28;20112;-71
2021/03/15 05:39:08;;;;;;;39.00;30.90;;;;;;;5.88;87.28;99276.28;5026255;28;20049;-67
2021/03/15 05:41:57;;;;;;;47.38;28.75;;;;;;;5.87;86.98;99279.66;5029204;28;20029;-68
2021/03/15 05:45:00;;;;;;;51.17;31.15;;;;;;;5.83;87.81;99281.22;5028934;28;20103;-71
2021/03/15 05:48:00;;;;;;;51.83;28.75;;;;;;;5.60;88.04;99226.59;5029042;28;20037;-71
2021/03/15 05:50:35;;;;;;;58.05;32.13;;;;;;;5.97;88.39;99286.84;5028782;28;20053;-65
2021/03/15 05:54:02;;;;;;;169.80;68.75;;;;;;;5.92;88.22;99269.53;5028683;28;20108;-71
2021/03/15 05:56:41;;;;;;;44.15;27.98;;;;;;;5.91;89.40;99276.38;4912555;29;20126;-71
2021/03/15 05:59:25;;;;;;;35.17;25.20;;;;;;;5.85;89.72;99268.47;4912661;29;20096;-69
2021/03/15 06:01:59;;;;;;;52.17;30.00;;;;;;;5.80;90.67;99270.84;4912578;29;20103;-67
2021/03/15 06:04:44;;;;;;;109.97;50.10;;;;;;;5.87;91.27;99271.97;4912641;29;20145;-70
2021/03/15 06:07:12;;;;;;;41.70;29.10;;;;;;;6.01;91.41;99269.03;4912641;29;20083;-72
2021/03/15 06:10:05;;;;;;;49.28;28.77;;;;;;;6.09;91.32;99267.63;4912658;29;20080;-72
2021/03/15 06:12:49;;;;;;;43.65;28.25;;;;;;;6.13;91.92;99270.34;4912639;29;20084;-70
2021/03/15 06:15:15;;;;;;;40.75;29.73;;;;;;;5.99;92.18;99217.75;4912660;29;20040;-69
2021/03/15 06:17:42;;;;;;;42.03;27.52;;;;;;;6.38;92.41;99258.41;4912576;29;20036;-66
2021/03/15 06:20:07;;;;;;;44.40;30.52;;;;;;;6.42;91.61;99244.00;4912202;29;20531;-72
2021/03/15 06:22:34;;;;;;;54.53;39.55;;;;;;;6.38;91.82;99227.63;4912320;29;20050;-70
2021/03/15 06:25:03;;;;;;;33.45;26.30;;;;;;;6.67;91.44;99229.41;4914289;29;20058;-67
2021/03/15 06:27:29;;;;;;;34.75;25.90;;;;;;;6.54;91.80;99189.69;4915662;29;20051;-67
2021/03/15 06:29:56;;;;;;;37.58;27.02;;;;;;;6.79;91.47;99222.09;4915601;29;20063;-69
2021/03/15 06:32:26;;;;;;;33.13;25.83;;;;;;;6.98;91.31;99221.00;4987278;28;20524;-67
2021/03/15 06:34:54;;;;;;;32.17;23.02;;;;;;;7.15;91.57;99216.38;5054032;28;20061;-72
2021/03/15 06:37:20;;;;;;;34.63;23.63;;;;;;;7.31;90.25;99215.13;5042545;28;20034;-72
2021/03/15 06:39:48;;;;;;;32.42;22.30;;;;;;;7.51;89.70;99225.13;5034126;28;20374;-66
2021/03/15 06:42:16;;;;;;;41.20;23.55;;;;;;;7.68;89.02;99233.34;5034323;28;20575;-67
2021/03/15 06:44:42;;;;;;;31.55;22.65;;;;;;;7.81;89.83;99230.25;5033975;28;20397;-70
2021/03/15 06:47:08;;;;;;;35.50;22.90;;;;;;;7.94;88.70;99227.22;5033842;28;20036;-69
2021/03/15 06:49:34;;;;;;;37.70;24.08;;;;;;;8.09;89.56;99225.91;5034087;28;20112;-70
2021/03/15 06:52:08;;;;;;;34.45;24.38;;;;;;;8.19;88.42;99237.31;5033957;28;20036;-66
2021/03/15 06:54:33;;;;;;;34.90;23.80;;;;;;;8.21;89.17;99221.09;5033699;28;20030;-67
2021/03/15 06:57:23;;;;;;;32.92;21.73;;;;;;;8.26;88.99;99219.50;5033837;28;20394;-66
2021/03/15 06:59:54;;;;;;;31.13;21.23;;;;;;;8.39;88.25;99217.25;5033402;28;20072;-70
2021/03/15 07:02:30;;;;;;;34.40;22.73;;;;;;;8.54;88.07;99207.38;5033699;28;20056;-70
2021/03/15 07:05:08;;;;;;;45.50;27.65;;;;;;;8.67;88.26;99199.94;5033806;28;20108;-67
2021/03/15 07:07:36;;;;;;;43.53;27.23;;;;;;;8.93;88.65;99197.97;5033595;28;20034;-71
2021/03/15 07:10:01;;;;;;;41.88;27.00;;;;;;;9.12;88.12;99204.44;5033697;28;20026;-72
2021/03/15 07:12:30;;;;;;;48.28;26.58;;;;;;;9.23;87.77;99207.22;5033447;28;20028;-70
2021/03/15 07:15:05;;;;;;;40.75;28.27;;;;;;;9.05;87.10;99163.94;5033536;28;20428;-69
2021/03/15 07:17:32;;;;;;;64.15;37.13;;;;;;;9.41;88.03;99193.00;5033124;28;20041;-70
2021/03/15 07:19:57;;;;;;;68.15;38.75;;;;;;;9.48;87.26;99167.44;5033107;28;20401;-72
2021/03/15 07:22:28;;;;;;;55.10;31.08;;;;;;;9.75;88.00;99181.69;5033161;28;20025;-68
2021/03/15 07:25:11;;;;;;;35.25;22.73;;;;;;;9.94;85.91;99176.88;5033023;28;20022;-66
2021/03/15 07:27:39;;;;;;;32.92;23.30;;;;;;;10.01;87.90;99178.75;5033083;28;20026;-66
2021/03/15 07:30:40;;;;;;;29.45;21.95;;;;;;;9.96;86.64;99167.47;5033180;28;20108;-67
2021/03/15 07:33:21;;;;;;;33.97;22.20;;;;;;;10.14;87.19;99160.06;5030598;28;20025;-72
2021/03/15 07:35:49;;;;;;;30.27;21.25;;;;;;;10.29;86.89;99163.75;5030714;28;20570;-72
2021/03/15 07:38:14;;;;;;;35.08;22.30;;;;;;;10.51;85.70;99163.28;5030942;28;20041;-72
2021/03/15 07:40:45;;;;;;;123.75;55.30;;;;;;;10.62;84.64;99157.44;5030743;28;20044;-71
2021/03/15 07:43:10;;;;;;;38.03;26.33;;;;;;;10.86;86.53;99159.50;5030840;28;20154;-70
2021/03/15 07:45:39;;;;;;;30.17;20.67;;;;;;;11.05;85.08;99150.28;5030676;28;20053;-71
2021/03/15 07:51:32;;;;;;;37.45;23.05;;;;;;;11.25;83.21;99132.50;5274407;22;20063;-69
2021/03/15 07:54:08;;;;;;;33.63;22.23;;;;;;;11.42;82.96;99127.53;5032703;28;20029;-69
2021/03/15 07:56:34;;;;;;;22.38;18.52;;;;;;;11.55;82.81;99114.75;5032365;28;20029;-69
2021/03/15 07:59:00;;;;;;;29.30;19.88;;;;;;;11.73;81.52;99112.34;5032515;28;20032;-69
2021/03/15 08:01:27;;;;;;;33.22;21.23;;;;;;;11.87;82.39;99109.03;5032546;28;20025;-69
2021/03/15 08:03:52;;;;;;;20.98;15.95;;;;;;;12.13;81.88;99104.13;5032606;28;20036;-69
2021/03/15 08:06:21;;;;;;;11.57;6.72;;;;;;;12.63;76.54;99097.59;5032315;28;20025;-69
2021/03/15 08:08:47;;;;;;;12.73;6.13;;;;;;;13.21;73.87;99088.44;5030597;28;20033;-69
2021/03/15 08:11:16;;;;;;;17.83;6.63;;;;;;;13.58;69.98;99085.97;5032544;28;20029;-69
2021/03/15 08:13:46;;;;;;;10.55;6.68;;;;;;;13.77;69.93;99081.69;5032469;28;20022;-69
2021/03/15 08:16:13;;;;;;;8.00;6.00;;;;;;;13.88;69.93;99079.09;5032138;28;20116;-69
2021/03/15 08:18:44;;;;;;;9.75;5.65;;;;;;;13.90;69.20;99067.84;5032226;28;20017;-69
2021/03/15 08:21:12;;;;;;;10.90;6.97;;;;;;;13.88;68.65;99076.50;5032287;28;20032;-69
2021/03/15 08:23:42;;;;;;;12.98;7.45;;;;;;;13.87;69.83;99067.88;5032456;28;20116;-69
2021/03/15 08:26:10;;;;;;;14.18;7.43;;;;;;;13.83;69.97;99070.44;5032259;28;20101;-69
2021/03/15 08:28:38;;;;;;;11.98;8.80;;;;;;;13.86;70.21;99071.31;5032142;28;20485;-69
2021/03/15 08:31:14;;;;;;;11.70;8.13;;;;;;;13.87;70.45;99062.69;5031892;28;20033;-69
2021/03/15 08:33:41;;;;;;;9.52;5.25;;;;;;;13.99;67.24;99066.13;5031980;28;20026;-69
2021/03/15 08:36:07;;;;;;;13.57;6.65;;;;;;;13.99;67.73;99022.03;5031662;28;20025;-69
2021/03/15 08:38:34;;;;;;;14.30;8.63;;;;;;;14.35;69.16;99039.28;5032117;28;20029;-69
2021/03/15 08:41:06;;;;;;;15.75;9.02;;;;;;;14.53;68.68;99053.13;5032022;28;20029;-69
2021/03/15 08:43:40;;;;;;;15.07;7.97;;;;;;;14.68;68.16;99037.53;5031613;28;20386;-69
2021/03/15 08:46:27;;;;;;;12.68;6.80;;;;;;;14.97;67.63;99035.72;5031659;28;20454;-69
2021/03/15 08:48:54;;;;;;;14.60;7.57;;;;;;;14.95;65.31;99033.09;4970647;28;20101;-69
2021/03/15 08:51:34;;;;;;;11.88;6.53;;;;;;;14.84;65.57;99027.97;4970626;28;20085;-69
2021/03/15 08:54:05;;;;;;;7.22;4.63;;;;;;;14.93;62.79;99027.06;4970759;28;20042;-69
2021/03/15 08:56:30;;;;;;;9.85;5.40;;;;;;;15.04;62.50;99020.06;4970700;28;20049;-69
2021/03/15 08:59:00;;;;;;;11.05;7.53;;;;;;;15.21;65.11;99021.72;4970699;28;20035;-69
2021/03/15 09:01:29;;;;;;;;;;;;;;;15.16;62.56;99013.09;4970684;28;20045;-69
2021/03/15 09:04:05;;;;;;;11.43;6.77;;;;;;;15.16;62.48;99002.69;4970622;28;20414;-69
2021/03/15 09:06:33;;;;;;;12.73;8.57;;;;;;;15.21;64.30;99011.31;4970154;28;20058;-67
2021/03/15 09:09:16;;;;;;;10.30;6.07;;;;;;;15.38;62.07;99003.44;4970630;28;20035;-69
2021/03/15 09:11:42;;;;;;;10.25;5.45;;;;;;;15.63;59.04;98987.66;4970531;28;20557;-70
2021/03/15 09:14:13;;;;;;;16.35;7.13;;;;;;;15.35;60.56;98986.13;4970440;28;20039;-69
2021/03/15 09:16:43;;;;;;;9.15;5.10;;;;;;;15.22;60.55;98981.84;4970500;28;20522;-68
2021/03/15 09:19:35;;;;;;;12.10;5.50;;;;;;;15.11;59.13;98974.13;4970468;28;20086;-67
2021/03/15 09:22:01;;;;;;;10.23;5.53;;;;;;;14.94;59.32;98981.13;4931883;29;20032;-68
2021/03/15 09:24:39;;;;;;;7.70;5.18;;;;;;;14.91;60.84;98975.97;4931833;29;20602;-68
2021/03/15 09:27:29;;;;;;;9.85;5.35;;;;;;;15.10;59.45;98959.38;4987555;28;20510;-69
2021/03/15 09:29:55;;;;;;;10.98;5.47;;;;;;;15.11;59.54;98936.88;4931089;29;20043;-66
2021/03/15 09:32:32;;;;;;;12.30;6.40;;;;;;;15.29;62.08;98949.75;4931807;29;20048;-67
2021/03/15 09:35:20;;;;;;;13.00;7.53;;;;;;;15.30;63.19;98951.50;4931707;29;20759;-68
2021/03/15 09:37:59;;;;;;;13.00;7.75;;;;;;;15.22;63.66;98949.81;4915429;29;20040;-69
2021/03/15 09:40:31;;;;;;;11.73;7.07;;;;;;;15.21;64.09;98946.34;4908802;29;20470;-68
2021/03/15 09:42:57;;;;;;;11.05;6.93;;;;;;;15.07;65.46;98941.22;4901072;29;20515;-69
2021/03/15 09:45:30;;;;;;;12.35;6.47;;;;;;;14.99;62.82;98930.88;4893657;29;20049;-70
2021/03/15 09:47:57;;;;;;;10.02;5.85;;;;;;;15.25;61.89;98921.19;4893753;29;20052;-67
2021/03/15 09:50:28;;;;;;;10.68;6.28;;;;;;;15.40;61.58;98894.19;4893529;29;20120;-70
2021/03/15 09:53:05;;;;;;;11.38;5.85;;;;;;;15.83;60.90;98897.31;4894084;29;20040;-67
2021/03/15 09:55:30;;;;;;;10.25;5.97;;;;;;;16.28;59.16;98916.81;4901386;29;20040;-72
2021/03/15 09:58:10;;;;;;;7.88;4.78;;;;;;;16.42;55.35;98903.63;4931736;29;20039;-66
2021/03/15 10:00:36;;;;;;;;;;;;;;;16.47;56.81;98900.09;4953719;29;20043;-70
2021/03/15 10:03:02;;;;;;;9.63;6.05;;;;;;;16.41;57.30;98888.88;4937069;29;19919;-69
2021/03/15 10:05:29;;;;;;;13.00;5.72;;;;;;;16.44;58.06;98883.63;4953702;29;20039;-68
2021/03/15 10:07:54;;;;;;;8.77;4.53;;;;;;;16.28;57.88;98864.72;5026779;28;20045;-68
2021/03/15 10:10:23;;;;;;;8.93;5.55;;;;;;;16.32;57.46;98869.00;5034167;28;20606;-66
2021/03/15 10:12:49;;;;;;;9.77;5.43;;;;;;;16.34;56.29;98862.06;5033865;28;20044;-67
2021/03/15 10:15:19;;;;;;;10.35;6.30;;;;;;;16.50;58.38;98858.34;5034190;28;20063;-68
2021/03/15 10:17:45;;;;;;;9.90;6.05;;;;;;;16.61;56.90;98852.13;5034299;28;20026;-70
2021/03/15 10:20:24;;;;;;;13.10;6.32;;;;;;;16.75;59.16;98854.56;5034352;28;20025;-72
2021/03/15 10:22:49;;;;;;;9.57;5.35;;;;;;;16.57;56.25;98848.72;5032332;28;20033;-74
2021/03/15 10:25:15;;;;;;;9.73;5.38;;;;;;;16.42;57.99;98849.78;5034019;28;20040;-71
2021/03/15 10:27:51;;;;;;;7.57;5.05;;;;;;;16.62;57.42;98836.50;5034139;28;20451;-70
2021/03/15 10:30:17;;;;;;;9.93;5.57;;;;;;;16.81;58.98;98826.66;5034177;28;20101;-72
2021/03/15 10:32:42;;;;;;;10.13;5.00;;;;;;;17.10;55.11;98827.13;5034524;28;20108;-71
2021/03/15 10:35:08;;;;;;;10.88;5.75;;;;;;;17.33;55.25;98828.50;5034058;28;20471;-69
2021/03/15 10:37:39;;;;;;;9.10;4.10;;;;;;;17.37;53.77;98818.00;5034138;28;20022;-71
2021/03/15 10:40:09;;;;;;;7.80;4.70;;;;;;;16.94;54.11;98816.09;5034206;28;20105;-68
2021/03/15 10:42:35;;;;;;;;;;;;;;;17.09;56.31;98807.16;5031865;28;20080;-68
2021/03/15 10:45:00;;;;;;;10.43;5.03;;;;;;;17.04;55.15;98790.75;5031918;28;20363;-74
2021/03/15 10:47:34;;;;;;;10.65;5.63;;;;;;;17.13;55.54;98795.78;5015465;28;20080;-68
2021/03/15 10:50:01;;;;;;;8.88;5.10;;;;;;;17.23;55.30;98773.03;5031989;28;20389;-69
2021/03/15 10:52:36;;;;;;;8.13;4.68;;;;;;;17.17;55.39;98776.63;5012256;28;20596;-69
2021/03/15 10:55:20;;;;;;;9.05;4.50;;;;;;;17.23;55.46;98778.22;5031398;28;20120;-70
2021/03/15 10:58:15;;;;;;;10.13;4.60;;;;;;;17.21;56.31;98773.06;5024499;28;20129;-71
2021/03/15 11:00:45;;;;;;;8.85;4.40;;;;;;;17.32;56.47;98772.00;4986421;28;20048;-72
2021/03/15 11:03:24;;;;;;;;;;;;;;;17.11;55.42;98777.56;4992632;28;20599;-74
2021/03/15 11:06:12;;;;;;;7.60;3.88;;;;;;;17.08;55.10;98764.56;4975965;28;20370;-74
2021/03/15 11:08:38;;;;;;;6.53;3.90;;;;;;;16.77;54.58;98736.41;4992149;28;20034;-74
2021/03/15 11:11:21;;;;;;;6.75;4.10;;;;;;;16.91;54.85;98764.88;4988023;28;20114;-73
2021/03/15 11:13:52;;;;;;;6.20;3.92;;;;;;;16.64;55.44;98729.66;4991443;28;20145;-72
2021/03/15 11:16:31;;;;;;;6.80;4.40;;;;;;;16.87;56.59;98741.44;4992030;28;20537;-71
2021/03/15 11:19:08;;;;;;;11.65;5.30;;;;;;;16.84;57.63;98734.53;4991982;28;20030;-70
2021/03/15 11:21:45;;;;;;;8.32;3.95;;;;;;;16.85;56.29;98723.22;4991626;28;20735;-72
2021/03/15 11:24:11;;;;;;;9.85;4.70;;;;;;;16.78;57.07;98719.84;4991454;28;20042;-71
2021/03/15 11:26:54;;;;;;;8.38;4.95;;;;;;;16.78;56.17;98716.41;4991478;28;20041;-69
2021/03/15 11:29:35;;;;;;;9.48;4.38;;;;;;;16.75;56.84;98721.66;4991132;28;20462;-72
2021/03/15 11:32:09;;;;;;;7.78;4.30;;;;;;;16.48;58.20;98693.41;4990451;28;20057;-72
2021/03/15 11:34:47;;;;;;;7.97;4.20;;;;;;;16.49;56.10;98725.53;4991525;28;20034;-71
2021/03/15 11:37:13;;;;;;;9.83;4.27;;;;;;;16.29;57.94;98684.19;5011506;28;20044;-69
2021/03/15 11:39:40;;;;;;;11.38;4.70;;;;;;;16.40;58.53;98707.44;5030834;28;20025;-68
2021/03/15 11:42:31;;;;;;;8.52;4.25;;;;;;;16.44;57.90;98703.91;5030288;28;20028;-73
2021/03/15 11:44:57;;;;;;;8.68;4.00;;;;;;;16.46;57.93;98715.16;5030437;28;20108;-71
2021/03/15 11:47:22;;;;;;;11.93;4.38;;;;;;;16.55;57.88;98704.59;5029548;28;21552;-69